Time;durP1;ratioP1;P1;durP2;ratioP2;P2;SDS_P1;SDS_P2;PMS_P1;PMS_P2;Temp;Humidity;BMP_temperature;BMP_pressure;BME280_temperature;BME280_humidity;BME280_pressure;Samples;Min_cycle;Max_cycle;Signal;HPM_P1;HPM_P2
2022/01/06 00:00:24;;;;;;;3.97;2.28;;;20.50;56.90;;;;;;4940701;28;88799;-88
2022/01/06 00:02:50;;;;;;;3.75;2.00;;;20.40;57.00;;;;;;4943124;28;86758;-87
2022/01/06 00:05:15;;;;;;;4.70;2.25;;;20.40;56.80;;;;;;4943608;28;87922;-88
2022/01/06 00:07:41;;;;;;;3.63;2.13;;;20.40;56.70;;;;;;4941927;28;87558;-87
2022/01/06 00:10:11;;;;;;;2.95;1.77;;;20.40;56.70;;;;;;4942816;28;87703;-89
2022/01/06 00:12:49;;;;;;;3.97;2.17;;;20.40;56.80;;;;;;4942950;28;88982;-92
2022/01/06 00:25:43;;;;;;;3.83;1.88;;;20.40;56.60;;;;;;4945986;28;88079;-88
2022/01/06 00:28:09;;;;;;;4.78;1.85;;;20.30;56.60;;;;;;4947087;28;87553;-87
2022/01/06 00:30:34;;;;;;;4.32;2.15;;;20.30;56.50;;;;;;4943290;28;87744;-91
2022/01/06 00:33:00;;;;;;;3.13;1.88;;;20.30;56.50;;;;;;4943890;28;89136;-89
2022/01/06 00:35:25;;;;;;;3.97;1.90;;;20.30;56.70;;;;;;4947725;28;87724;-88
2022/01/06 00:37:51;;;;;;;4.65;2.28;;;20.30;56.50;;;;;;4944882;28;87271;-91
2022/01/06 00:40:17;;;;;;;4.07;1.80;;;20.30;56.70;;;;;;4943075;28;86860;-89
2022/01/06 00:42:43;;;;;;;3.05;1.83;;;20.30;57.20;;;;;;4946379;28;88189;-87
2022/01/06 00:45:17;;;;;;;3.80;1.85;;;20.30;56.40;;;;;;4941489;28;87680;-89
2022/01/06 00:47:44;;;;;;;3.10;1.85;;;20.30;56.50;;;;;;4946234;28;87900;-89
2022/01/06 00:50:11;;;;;;;4.00;2.00;;;20.30;56.30;;;;;;4944873;28;87512;-89
2022/01/06 00:52:41;;;;;;;3.70;1.90;;;20.30;56.30;;;;;;4927853;28;90918;-91
2022/01/06 00:55:07;;;;;;;3.97;2.03;;;20.20;56.30;;;;;;4946330;28;89870;-90
2022/01/06 00:57:33;;;;;;;2.97;1.90;;;20.20;56.50;;;;;;4950053;28;87549;-89
2022/01/06 00:59:59;;;;;;;4.53;2.03;;;20.20;56.50;;;;;;4950801;28;87518;-90
2022/01/06 01:02:24;;;;;;;2.65;1.75;;;20.20;56.50;;;;;;4932316;28;89433;-90
2022/01/06 01:04:50;;;;;;;5.32;2.13;;;20.20;56.40;;;;;;4948806;28;90235;-87
2022/01/06 01:07:16;;;;;;;3.35;2.03;;;20.20;56.40;;;;;;4949137;28;87908;-87
2022/01/06 01:09:41;;;;;;;4.53;2.10;;;20.20;56.40;;;;;;4946806;28;89209;-91
2022/01/06 01:12:08;;;;;;;4.10;2.10;;;20.20;56.20;;;;;;4928895;28;90664;-89
2022/01/06 01:14:44;;;;;;;4.07;1.70;;;20.20;56.10;;;;;;4944907;28;89188;-89
2022/01/06 01:17:14;;;;;;;3.92;1.88;;;20.20;56.10;;;;;;4944813;28;87690;-89
2022/01/06 01:19:40;;;;;;;3.05;1.50;;;20.20;56.00;;;;;;4948872;28;89581;-89
2022/01/06 01:22:07;;;;;;;3.35;1.60;;;20.10;56.10;;;;;;4947762;28;90498;-91
2022/01/06 01:24:33;;;;;;;3.63;2.15;;;20.20;56.10;;;;;;4929272;28;90385;-90
2022/01/06 01:26:58;;;;;;;3.75;1.92;;;20.10;56.30;;;;;;4950839;28;87192;-91
2022/01/06 01:29:26;;;;;;;2.75;1.70;;;20.10;56.00;;;;;;4948454;28;89100;-90
2022/01/06 01:31:59;;;;;;;3.50;1.90;;;20.10;56.20;;;;;;4944847;28;90930;-90
2022/01/06 01:34:27;;;;;;;3.55;1.80;;;20.10;56.10;;;;;;4942204;28;88054;-91
2022/01/06 01:36:57;;;;;;;2.63;1.48;;;20.10;55.90;;;;;;4928793;28;89266;-89
2022/01/06 01:39:24;;;;;;;3.55;2.05;;;20.10;55.90;;;;;;4945047;28;88050;-87
2022/01/06 01:41:50;;;;;;;4.28;1.92;;;20.10;56.00;;;;;;4946105;28;87995;-89
2022/01/06 01:44:19;;;;;;;5.72;1.70;;;20.10;56.10;;;;;;4945945;28;90319;-91
2022/01/06 01:46:58;;;;;;;3.38;1.90;;;20.10;55.90;;;;;;4931773;28;87076;-91
2022/01/06 01:51:50;;;;;;;3.30;1.70;;;20.10;56.10;;;;;;4950173;28;87115;-91
2022/01/06 01:54:16;;;;;;;3.85;1.90;;;20.10;56.10;;;;;;4945940;28;90199;-84
2022/01/06 01:56:42;;;;;;;4.53;1.75;;;20.10;56.60;;;;;;4942080;28;87817;-88
2022/01/06 01:59:08;;;;;;;2.28;1.50;;;20.10;56.00;;;;;;4942213;28;86897;-90
2022/01/06 02:01:34;;;;;;;3.17;1.80;;;20.00;55.90;;;;;;4941608;28;91570;-91
2022/01/06 02:04:00;;;;;;;4.05;2.00;;;20.00;56.00;;;;;;4941629;28;88600;-87
2022/01/06 02:06:26;;;;;;;3.30;1.80;;;20.00;55.90;;;;;;4942754;28;87551;-86
2022/01/06 02:08:54;;;;;;;3.40;1.80;;;20.00;56.00;;;;;;4945038;28;87395;-89
2022/01/06 02:11:21;;;;;;;4.93;1.83;;;20.00;55.90;;;;;;4945669;28;90584;-87
2022/01/06 02:13:48;;;;;;;4.40;1.95;;;20.00;55.80;;;;;;4949189;28;87781;-85
2022/01/06 02:16:18;;;;;;;3.13;1.70;;;20.00;55.90;;;;;;4942133;28;87635;-86
2022/01/06 02:18:43;;;;;;;2.35;1.60;;;20.00;55.90;;;;;;4947718;28;86757;-86
2022/01/06 02:21:09;;;;;;;3.80;1.83;;;20.00;55.90;;;;;;4924395;28;90596;-86
2022/01/06 02:23:34;;;;;;;4.60;2.00;;;20.00;55.90;;;;;;4927735;28;89343;-87
2022/01/06 02:26:00;;;;;;;5.10;2.08;;;20.00;55.90;;;;;;4945355;28;89141;-89
2022/01/06 02:28:26;;;;;;;3.78;1.80;;;20.00;55.80;;;;;;4942913;28;87297;-88
2022/01/06 02:30:54;;;;;;;3.72;1.70;;;19.90;55.90;;;;;;4946241;28;88224;-84
2022/01/06 02:33:20;;;;;;;4.90;2.17;;;20.00;55.80;;;;;;4924645;28;89309;-87
2022/01/06 02:35:47;;;;;;;2.90;1.52;;;19.90;55.90;;;;;;4943655;28;87368;-88
2022/01/06 02:38:13;;;;;;;2.67;1.63;;;19.90;55.90;;;;;;4940258;28;87585;-85
2022/01/06 02:40:39;;;;;;;4.53;1.60;;;19.90;55.80;;;;;;4922005;28;89750;-87
2022/01/06 02:43:07;;;;;;;3.35;1.80;;;19.90;55.80;;;;;;4950196;28;87387;-88
2022/01/06 02:45:40;;;;;;;3.65;1.60;;;19.90;55.80;;;;;;4943269;28;87563;-85
2022/01/06 02:48:09;;;;;;;3.25;1.58;;;19.90;55.80;;;;;;4942747;28;87911;-86
2022/01/06 02:50:43;;;;;;;4.23;1.70;;;19.90;55.90;;;;;;4942831;28;88837;-87
2022/01/06 02:53:10;;;;;;;4.20;2.00;;;19.90;55.80;;;;;;4946147;28;90086;-85
2022/01/06 02:55:43;;;;;;;3.22;1.60;;;19.90;55.80;;;;;;4925284;28;87409;-89
2022/01/06 02:58:08;;;;;;;2.92;1.40;;;19.90;55.80;;;;;;4940727;28;87904;-89
2022/01/06 03:00:35;;;;;;;2.97;1.63;;;19.90;55.80;;;;;;4939475;28;89033;-88
2022/01/06 03:03:01;;;;;;;2.85;1.65;;;19.90;55.70;;;;;;4948741;28;88262;-90
2022/01/06 03:05:27;;;;;;;4.07;1.75;;;19.90;55.70;;;;;;4932618;28;87635;-90
2022/01/06 03:07:52;;;;;;;2.85;1.58;;;19.80;55.70;;;;;;4938867;28;89638;-87
2022/01/06 03:10:18;;;;;;;2.78;1.60;;;19.90;55.90;;;;;;4921374;28;90484;-86
2022/01/06 03:12:46;;;;;;;2.60;1.45;;;19.80;55.80;;;;;;4942692;28;89914;-84
2022/01/06 03:15:39;;;;;;;3.17;1.73;;;19.80;55.80;;;;;;4941822;28;88788;-88
2022/01/06 03:18:05;;;;;;;3.05;1.70;;;19.80;55.70;;;;;;4938450;28;88302;-86
2022/01/06 03:20:31;;;;;;;3.67;1.80;;;19.90;55.80;;;;;;4941987;28;87638;-87
2022/01/06 03:22:57;;;;;;;3.40;1.50;;;19.80;55.80;;;;;;4942484;28;88229;-86
2022/01/06 03:25:23;;;;;;;3.28;1.80;;;19.80;55.90;;;;;;4943949;28;87473;-89
2022/01/06 03:27:50;;;;;;;3.55;1.50;;;19.80;55.80;;;;;;4920093;28;89002;-87
2022/01/06 03:30:21;;;;;;;3.90;1.85;;;19.80;55.60;;;;;;4943261;28;90373;-85
2022/01/06 03:32:47;;;;;;;3.13;1.60;;;19.80;55.70;;;;;;4925077;28;88752;-84
2022/01/06 03:35:15;;;;;;;2.13;1.25;;;19.80;55.80;;;;;;4940454;28;87226;-89
2022/01/06 03:37:41;;;;;;;2.65;1.27;;;19.80;55.70;;;;;;4941937;28;87408;-90
2022/01/06 03:40:07;;;;;;;3.30;1.77;;;19.80;55.70;;;;;;4942292;28;89015;-83
2022/01/06 03:42:35;;;;;;;3.03;1.33;;;19.80;55.80;;;;;;4943557;28;91184;-86
2022/01/06 03:45:05;;;;;;;2.33;1.60;;;19.80;55.80;;;;;;4940688;28;87750;-87
2022/01/06 03:47:32;;;;;;;2.70;1.65;;;19.70;55.70;;;;;;4935801;28;91260;-89
2022/01/06 03:49:58;;;;;;;2.75;1.70;;;19.80;55.80;;;;;;4943117;28;88111;-85
2022/01/06 03:52:23;;;;;;;2.72;1.58;;;19.70;55.60;;;;;;4940104;28;88794;-88
2022/01/06 03:54:51;;;;;;;3.28;1.52;;;19.70;55.70;;;;;;4942669;28;86843;-87
2022/01/06 03:57:17;;;;;;;2.90;1.80;;;19.70;55.60;;;;;;4942431;28;89996;-87
2022/01/06 03:59:42;;;;;;;3.13;1.40;;;19.70;55.60;;;;;;4938779;28;87587;-87
2022/01/06 04:02:08;;;;;;;3.15;1.42;;;19.70;55.60;;;;;;4940157;28;87693;-84
2022/01/06 04:04:34;;;;;;;2.28;1.52;;;19.70;55.60;;;;;;4938784;28;88975;-86
2022/01/06 04:07:00;;;;;;;3.78;1.50;;;19.70;55.50;;;;;;4940470;28;88423;-91
2022/01/06 04:09:25;;;;;;;2.08;1.33;;;19.70;55.50;;;;;;4940194;28;87761;-86
2022/01/06 04:11:51;;;;;;;2.80;1.52;;;19.70;55.50;;;;;;4943485;28;87107;-84
2022/01/06 04:14:16;;;;;;;2.50;1.67;;;19.70;55.50;;;;;;4944614;28;87435;-85
2022/01/06 04:16:42;;;;;;;3.08;1.70;;;19.60;55.40;;;;;;4925977;28;90851;-88
2022/01/06 04:19:11;;;;;;;2.55;1.27;;;19.70;55.50;;;;;;4939163;28;88015;-87
2022/01/06 04:21:37;;;;;;;3.30;1.63;;;19.60;55.40;;;;;;4940798;28;89483;-85
2022/01/06 04:24:04;;;;;;;3.15;1.38;;;19.60;55.40;;;;;;4943190;28;87733;-89
2022/01/06 04:26:30;;;;;;;1.98;1.30;;;19.60;55.60;;;;;;4944824;28;87301;-88
2022/01/06 04:28:58;;;;;;;2.90;1.45;;;19.60;55.40;;;;;;4925988;28;90023;-88
2022/01/06 04:31:28;;;;;;;3.05;1.30;;;19.60;55.50;;;;;;4941232;28;88769;-85
2022/01/06 04:33:54;;;;;;;2.97;1.30;;;19.60;55.60;;;;;;4942277;28;87915;-85
2022/01/06 04:36:20;;;;;;;1.98;1.40;;;19.60;55.40;;;;;;4940967;28;87601;-90
2022/01/06 04:38:46;;;;;;;2.28;1.30;;;19.60;55.50;;;;;;4945604;28;89475;-89
2022/01/06 04:41:11;;;;;;;3.20;1.80;;;19.60;55.40;;;;;;4926472;28;90290;-86
2022/01/06 04:43:37;;;;;;;3.15;1.38;;;19.60;55.40;;;;;;4937660;28;87647;-89
2022/01/06 04:46:03;;;;;;;3.42;1.60;;;19.60;55.40;;;;;;4929924;28;89494;-89
2022/01/06 04:48:29;;;;;;;2.63;1.52;;;19.60;55.50;;;;;;4938009;28;90890;-88
2022/01/06 04:50:55;;;;;;;2.92;1.63;;;19.60;55.30;;;;;;4939408;28;87526;-90
2022/01/06 04:53:20;;;;;;;2.83;1.55;;;19.60;55.40;;;;;;4924393;28;88367;-89
2022/01/06 04:55:46;;;;;;;4.10;1.55;;;19.60;55.60;;;;;;4921440;28;89401;-91
2022/01/06 04:58:11;;;;;;;3.15;1.20;;;19.60;55.50;;;;;;4945623;28;87565;-84
2022/01/06 05:00:37;;;;;;;4.35;1.40;;;19.60;55.40;;;;;;4944536;28;88192;-90
2022/01/06 05:03:03;;;;;;;2.55;1.17;;;19.60;55.40;;;;;;4942317;28;87839;-90
2022/01/06 05:05:29;;;;;;;2.58;1.30;;;19.50;55.30;;;;;;4923121;28;87446;-86
2022/01/06 05:07:54;;;;;;;2.97;1.58;;;19.50;55.40;;;;;;4941759;28;91736;-90
2022/01/06 05:10:20;;;;;;;3.47;1.48;;;19.50;55.40;;;;;;4940226;28;90065;-86
2022/01/06 05:12:46;;;;;;;3.20;1.42;;;19.50;55.40;;;;;;4925926;28;87365;-91
2022/01/06 05:15:13;;;;;;;2.03;1.20;;;19.50;55.50;;;;;;4943518;28;87899;-86
2022/01/06 05:17:40;;;;;;;2.20;1.52;;;19.50;55.50;;;;;;4936563;28;90373;-83
2022/01/06 05:20:07;;;;;;;1.92;1.10;;;19.50;55.30;;;;;;4939107;28;91533;-91
2022/01/06 05:22:33;;;;;;;2.05;1.40;;;19.50;55.30;;;;;;4926497;28;87396;-89
2022/01/06 05:24:59;;;;;;;2.47;1.25;;;19.50;55.30;;;;;;4937864;28;87667;-89
2022/01/06 05:27:25;;;;;;;2.58;1.38;;;19.50;55.50;;;;;;4945360;28;87912;-89
2022/01/06 05:29:51;;;;;;;2.50;1.45;;;19.50;55.50;;;;;;4941300;28;87410;-88
2022/01/06 05:32:17;;;;;;;1.88;1.13;;;19.50;55.30;;;;;;4940400;28;87638;-88
2022/01/06 05:34:43;;;;;;;3.00;1.38;;;19.50;56.00;;;;;;4941086;28;86745;-88
2022/01/06 05:37:09;;;;;;;3.53;1.50;;;19.40;55.40;;;;;;4916909;28;90201;-84
2022/01/06 05:39:34;;;;;;;2.63;1.50;;;19.40;55.30;;;;;;4941118;28;88582;-89
2022/01/06 05:42:00;;;;;;;3.65;1.58;;;19.40;55.30;;;;;;4945922;28;88683;-88
2022/01/06 05:44:27;;;;;;;1.85;1.23;;;19.40;55.30;;;;;;4949067;28;87588;-84
2022/01/06 05:46:53;;;;;;;3.38;1.55;;;19.40;55.90;;;;;;4948650;28;87409;-87
2022/01/06 05:49:18;;;;;;;2.42;1.23;;;19.40;55.20;;;;;;4948707;28;87774;-85
2022/01/06 05:51:44;;;;;;;2.75;1.40;;;19.40;55.20;;;;;;4927889;28;87541;-89
2022/01/06 05:54:10;;;;;;;3.47;1.58;;;19.40;55.20;;;;;;4941782;28;87608;-89
2022/01/06 05:56:36;;;;;;;2.50;1.48;;;19.40;55.10;;;;;;4941809;28;87266;-85
2022/01/06 05:59:01;;;;;;;2.42;1.48;;;19.40;55.30;;;;;;4946102;28;90635;-87
2022/01/06 06:01:27;;;;;;;2.00;1.27;;;19.40;55.20;;;;;;4925236;28;86975;-88
2022/01/06 06:03:54;;;;;;;3.47;1.38;;;19.40;55.10;;;;;;4945561;28;87552;-88
2022/01/06 06:06:20;;;;;;;2.38;1.33;;;19.40;55.20;;;;;;4944047;28;90387;-88
2022/01/06 06:08:46;;;;;;;1.92;1.30;;;19.40;55.10;;;;;;4946275;28;88843;-85
2022/01/06 06:11:12;;;;;;;2.63;1.50;;;19.40;55.20;;;;;;4924669;28;87704;-89
2022/01/06 06:13:38;;;;;;;2.63;1.35;;;19.40;55.10;;;;;;4945851;28;87099;-88
2022/01/06 06:16:03;;;;;;;2.00;1.25;;;19.40;55.10;;;;;;4928891;28;90569;-85
2022/01/06 06:18:29;;;;;;;2.60;1.27;;;19.40;55.10;;;;;;4940273;28;88053;-85
2022/01/06 06:20:55;;;;;;;3.05;1.33;;;19.40;55.20;;;;;;4946432;28;87521;-84
2022/01/06 06:23:20;;;;;;;2.85;1.45;;;19.30;55.10;;;;;;4924761;28;89262;-86
2022/01/06 06:25:46;;;;;;;2.40;1.20;;;19.30;55.10;;;;;;4947243;28;88075;-85
2022/01/06 06:28:12;;;;;;;2.20;1.50;;;19.30;55.20;;;;;;4940616;28;90451;-88
2022/01/06 06:30:37;;;;;;;3.13;1.30;;;19.30;55.20;;;;;;4939764;28;87862;-91
2022/01/06 06:33:03;;;;;;;3.10;1.58;;;19.30;55.30;;;;;;4941996;28;88732;-89
2022/01/06 06:35:30;;;;;;;4.30;1.30;;;19.30;55.10;;;;;;4944751;28;87829;-86
2022/01/06 06:37:56;;;;;;;2.60;1.30;;;19.30;54.80;;;;;;4942450;28;87557;-85
2022/01/06 06:40:23;;;;;;;3.13;1.33;;;19.30;54.80;;;;;;4945521;28;87777;-88
2022/01/06 06:42:49;;;;;;;2.60;1.15;;;19.30;55.20;;;;;;4944170;28;87822;-87
2022/01/06 06:45:15;;;;;;;3.75;1.48;;;19.30;55.10;;;;;;4919452;28;90466;-85
2022/01/06 06:47:41;;;;;;;3.95;1.23;;;19.30;55.00;;;;;;4939206;28;87552;-85
2022/01/06 06:50:08;;;;;;;3.33;1.35;;;19.30;55.30;;;;;;4941724;28;87793;-83
2022/01/06 06:52:34;;;;;;;2.78;1.27;;;19.30;55.20;;;;;;4939652;28;87897;-86
2022/01/06 06:54:59;;;;;;;2.70;1.60;;;19.30;55.10;;;;;;4943946;28;89777;-85
2022/01/06 06:57:27;;;;;;;2.72;1.73;;;19.30;55.00;;;;;;4939722;28;88398;-84
2022/01/06 06:59:57;;;;;;;3.83;1.48;;;19.30;55.00;;;;;;4938007;28;88000;-85
2022/01/06 07:02:22;;;;;;;2.33;1.10;;;19.30;55.00;;;;;;4943808;28;87752;-89
2022/01/06 07:04:48;;;;;;;2.65;1.38;;;19.30;55.00;;;;;;4937212;28;87737;-86
2022/01/06 07:07:14;;;;;;;2.33;1.30;;;19.30;54.90;;;;;;4941971;28;87775;-88
2022/01/06 07:09:39;;;;;;;7.38;1.85;;;19.30;55.30;;;;;;4926283;28;87646;-84
2022/01/06 07:12:05;;;;;;;3.47;1.40;;;19.30;56.10;;;;;;4937004;28;86588;-83
2022/01/06 07:14:31;;;;;;;4.35;1.50;;;19.40;55.80;;;;;;4935492;28;88105;-87
2022/01/06 07:16:57;;;;;;;3.85;1.70;;;19.40;56.10;;;;;;4933857;28;90358;-85
2022/01/06 07:19:23;;;;;;;4.38;1.60;;;19.50;56.20;;;;;;4940905;28;88229;-86
2022/01/06 07:21:49;;;;;;;21.30;4.00;;;19.60;56.40;;;;;;4944793;28;87019;-85
2022/01/06 07:24:14;;;;;;;6.85;1.98;;;19.60;55.80;;;;;;4942576;28;87371;-83
2022/01/06 07:26:40;;;;;;;13.25;3.00;;;19.60;56.20;;;;;;4925583;28;90222;-84
2022/01/06 07:29:06;;;;;;;27.67;6.60;;;19.70;55.90;;;;;;4937076;28;87578;-85
2022/01/06 07:31:31;;;;;;;13.93;4.07;;;19.80;55.60;;;;;;4941762;28;86990;-84
2022/01/06 07:33:57;;;;;;;18.02;4.15;;;19.80;54.60;;;;;;4939514;28;87715;-86
2022/01/06 07:36:22;;;;;;;23.67;5.38;;;19.80;55.40;;;;;;4938682;28;86924;-83
2022/01/06 07:38:48;;;;;;;13.15;4.28;;;19.90;55.70;;;;;;4944196;28;86921;-87
2022/01/06 07:41:15;;;;;;;26.33;5.63;;;19.90;56.10;;;;;;4946379;28;87207;-84
2022/01/06 07:43:41;;;;;;;22.38;5.00;;;19.90;55.80;;;;;;4944906;28;88509;-87
2022/01/06 07:46:07;;;;;;;21.30;5.43;;;19.90;56.20;;;;;;4945928;28;88706;-84
2022/01/06 07:48:55;;;;;;;30.92;6.18;;;20.00;56.40;;;;;;4939390;28;87943;-82
2022/01/06 07:51:26;;;;;;;29.17;6.63;;;19.80;49.80;;;;;;4944257;28;87005;-85
2022/01/06 07:53:52;;;;;;;28.98;7.25;;;19.90;54.40;;;;;;4940064;28;87635;-84
2022/01/06 07:56:18;;;;;;;35.45;6.88;;;20.00;54.70;;;;;;4939036;28;87834;-84
2022/01/06 07:58:45;;;;;;;26.85;7.20;;;20.10;55.10;;;;;;4930632;28;87599;-83
2022/01/06 08:01:11;;;;;;;26.42;7.57;;;20.00;55.10;;;;;;4939348;28;87089;-87
2022/01/06 08:03:37;;;;;;;35.85;8.23;;;20.10;55.00;;;;;;4938111;28;88821;-85
2022/01/06 08:06:03;;;;;;;34.47;8.73;;;20.10;55.20;;;;;;4938030;28;89384;-84
2022/01/06 08:08:28;;;;;;;39.70;8.00;;;20.10;54.40;;;;;;4940525;28;88862;-87
2022/01/06 08:10:56;;;;;;;29.60;8.05;;;20.10;54.90;;;;;;4935164;28;89247;-84
2022/01/06 08:13:21;;;;;;;38.03;9.00;;;20.20;54.30;;;;;;4930850;28;90792;-84
2022/01/06 08:15:47;;;;;;;32.38;7.65;;;20.10;54.10;;;;;;4936811;28;87866;-85
2022/01/06 08:18:13;;;;;;;30.90;7.90;;;20.20;54.70;;;;;;4941601;28;87318;-84
2022/01/06 08:20:39;;;;;;;67.30;30.25;;;20.20;54.40;;;;;;4943175;28;87690;-83
2022/01/06 08:23:06;;;;;;;81.70;33.20;;;20.20;54.20;;;;;;4942509;28;87748;-85
2022/01/06 08:25:32;;;;;;;79.68;30.48;;;20.20;53.70;;;;;;4942654;28;88341;-85
2022/01/06 08:27:58;;;;;;;91.93;30.58;;;20.20;54.30;;;;;;4947552;28;87368;-86
2022/01/06 08:30:24;;;;;;;125.45;35.25;;;20.10;54.50;;;;;;4953860;28;86915;-84
2022/01/06 08:32:50;;;;;;;99.45;30.80;;;20.20;53.90;;;;;;4946238;28;89068;-93
2022/01/06 08:35:15;;;;;;;96.22;32.13;;;20.10;54.80;;;;;;4947941;28;88275;-88
2022/01/06 08:37:43;;;;;;;110.07;32.00;;;20.20;55.00;;;;;;4951384;28;87230;-86
2022/01/06 08:40:09;;;;;;;104.80;32.60;;;20.10;54.90;;;;;;4951997;28;87773;-91
2022/01/06 08:42:36;;;;;;;97.28;28.33;;;20.10;55.20;;;;;;4954228;28;89733;-86
2022/01/06 08:45:02;;;;;;;91.88;28.92;;;20.10;55.60;;;;;;4946869;28;87935;-86
2022/01/06 08:47:29;;;;;;;96.72;31.50;;;20.10;55.80;;;;;;4955020;28;87560;-88
2022/01/06 08:49:56;;;;;;;88.70;28.67;;;20.10;56.00;;;;;;4947586;28;87427;-85
2022/01/06 08:52:23;;;;;;;78.80;28.30;;;20.20;56.20;;;;;;4951371;28;88224;-85
2022/01/06 08:54:52;;;;;;;77.82;26.33;;;20.20;56.10;;;;;;4952350;28;87828;-84
2022/01/06 08:57:18;;;;;;;80.63;28.02;;;20.20;55.90;;;;;;4937246;28;88023;-89
2022/01/06 08:59:44;;;;;;;74.85;24.83;;;20.20;56.10;;;;;;4941596;28;88185;-84
2022/01/06 09:02:20;;;;;;;74.20;25.08;;;20.20;56.70;;;;;;4946005;28;88155;-87
2022/01/06 09:04:45;;;;;;;78.30;26.25;;;20.20;56.60;;;;;;4941703;28;87824;-87
2022/01/06 09:07:11;;;;;;;73.35;24.42;;;20.20;56.70;;;;;;4927854;28;87241;-86
2022/01/06 09:09:39;;;;;;;78.55;25.17;;;20.20;56.90;;;;;;4940987;28;87585;-88
2022/01/06 09:12:08;;;;;;;76.25;24.13;;;20.20;56.90;;;;;;4929308;28;90254;-85
2022/01/06 09:14:34;;;;;;;75.93;23.40;;;20.30;56.90;;;;;;4951958;28;87875;-86
2022/01/06 09:17:00;;;;;;;71.72;23.65;;;20.30;57.20;;;;;;4952797;28;87178;-88
2022/01/06 09:19:26;;;;;;;73.95;23.05;;;20.30;57.20;;;;;;4947412;28;88244;-86
2022/01/06 09:21:52;;;;;;;68.15;22.25;;;20.30;57.20;;;;;;4948247;28;90891;-84
2022/01/06 09:24:24;;;;;;;67.85;21.02;;;20.30;57.50;;;;;;4952730;28;87510;-85
2022/01/06 09:26:50;;;;;;;54.75;18.80;;;20.40;57.70;;;;;;4932885;28;87930;-86
2022/01/06 09:29:18;;;;;;;66.60;22.55;;;20.40;57.80;;;;;;4958510;28;87906;-84
2022/01/06 09:32:01;;;;;;;67.78;20.90;;;20.30;56.70;;;;;;4952555;28;89409;-84
2022/01/06 09:34:37;;;;;;;64.30;20.42;;;20.30;56.30;;;;;;4861561;28;87576;-84
2022/01/06 09:37:05;;;;;;;57.83;20.00;;;20.30;56.10;;;;;;4952937;28;87389;-85
2022/01/06 09:39:41;;;;;;;55.83;20.17;;;20.30;55.50;;;;;;4956491;28;86527;-84
2022/01/06 09:42:08;;;;;;;51.20;16.80;;;20.30;55.60;;;;;;4937959;28;90132;-86
2022/01/06 09:44:35;;;;;;;54.42;17.48;;;20.30;54.00;;;;;;4951926;28;87180;-83
2022/01/06 09:47:03;;;;;;;46.78;16.75;;;20.30;53.70;;;;;;4953511;28;88071;-85
2022/01/06 09:49:29;;;;;;;49.88;17.15;;;20.30;53.60;;;;;;4945408;28;87930;-86
2022/01/06 09:51:55;;;;;;;46.25;16.05;;;20.30;53.20;;;;;;4948650;28;87322;-89
2022/01/06 09:54:21;;;;;;;39.60;14.75;;;20.20;52.80;;;;;;4950365;28;87896;-85
2022/01/06 09:56:47;;;;;;;39.45;13.95;;;20.30;51.80;;;;;;4947721;28;88058;-87
2022/01/06 09:59:17;;;;;;;33.95;11.52;;;20.20;51.50;;;;;;4933758;28;87839;-84
2022/01/06 10:01:43;;;;;;;37.30;11.63;;;20.20;50.80;;;;;;4947567;28;87653;-88
2022/01/06 10:04:38;;;;;;;39.08;12.77;;;20.20;50.00;;;;;;4950073;28;87665;-88
2022/01/06 10:07:06;;;;;;;33.80;11.70;;;20.20;49.30;;;;;;4929438;28;87111;-86
2022/01/06 10:09:34;;;;;;;36.22;12.48;;;20.20;48.70;;;;;;4948081;28;86985;-87
2022/01/06 10:12:03;;;;;;;35.72;12.10;;;20.20;49.20;;;;;;4931035;28;90555;-85
2022/01/06 10:15:01;;;;;;;32.28;11.35;;;20.30;50.10;;;;;;4951688;28;89559;-85
2022/01/06 10:17:33;;;;;;;35.60;11.18;;;20.30;50.70;;;;;;4951195;28;87452;-84
2022/01/06 10:20:11;;;;;;;35.28;12.07;;;20.30;51.30;;;;;;4940283;28;87663;-90
2022/01/06 10:22:51;;;;;;;33.92;11.57;;;20.30;51.80;;;;;;4930620;28;90907;-86
2022/01/06 10:25:38;;;;;;;34.22;12.40;;;20.30;52.50;;;;;;4911074;28;90595;-88
2022/01/06 10:28:24;;;;;;;30.33;10.73;;;20.30;53.00;;;;;;4933238;28;87508;-86
2022/01/06 10:30:52;;;;;;;29.80;11.27;;;20.40;53.30;;;;;;4935395;28;86921;-86
2022/01/06 10:33:41;;;;;;;34.78;11.30;;;20.40;53.70;;;;;;4950408;28;88208;-87
2022/01/06 10:36:08;;;;;;;34.20;11.02;;;20.50;53.80;;;;;;4944796;28;87302;-84
2022/01/06 10:38:37;;;;;;;32.00;10.60;;;20.40;53.80;;;;;;4952695;28;88201;-87
2022/01/06 10:41:16;;;;;;;25.08;9.73;;;20.40;53.90;;;;;;4931304;28;88509;-91
2022/01/06 10:43:51;;;;;;;30.98;10.93;;;20.50;54.10;;;;;;4950999;28;87783;-86
2022/01/06 10:46:32;;;;;;;26.45;9.63;;;20.40;54.40;;;;;;4947042;28;88451;-90
2022/01/06 10:49:11;;;;;;;29.80;10.35;;;20.50;55.00;;;;;;4951706;28;87763;-84
2022/01/06 10:51:39;;;;;;;29.75;10.70;;;20.50;54.90;;;;;;4946461;28;87612;-90
2022/01/06 10:54:17;;;;;;;37.58;9.68;;;20.60;55.00;;;;;;4951039;28;86761;-84
2022/01/06 10:57:01;;;;;;;32.30;10.25;;;20.50;55.90;;;;;;4935528;28;90710;-86
2022/01/06 10:59:30;;;;;;;30.73;9.38;;;20.50;55.50;;;;;;4959356;28;87606;-85
2022/01/06 11:01:57;;;;;;;23.60;9.75;;;20.50;55.80;;;;;;4940043;28;88278;-85
2022/01/06 11:04:24;;;;;;;33.92;9.45;;;20.50;55.90;;;;;;4954833;28;88904;-87
2022/01/06 11:06:58;;;;;;;30.38;9.50;;;20.50;56.10;;;;;;4956660;28;88499;-85
2022/01/06 11:09:25;;;;;;;29.25;9.52;;;20.50;56.60;;;;;;4957376;28;86827;-90
2022/01/06 11:14:27;;;;;;;31.08;10.32;;;20.50;57.00;;;;;;4948177;28;87834;-89
2022/01/06 11:16:53;;;;;;;27.55;9.30;;;20.50;57.00;;;;;;4928992;28;90009;-83
2022/01/06 11:19:22;;;;;;;31.15;9.18;;;20.50;57.30;;;;;;4946987;28;87608;-85
2022/01/06 11:21:49;;;;;;;23.38;9.02;;;20.50;57.20;;;;;;4949629;28;88308;-89
2022/01/06 11:24:20;;;;;;;26.55;9.32;;;20.60;57.40;;;;;;4949897;28;86973;-89
2022/01/06 11:27:27;;;;;;;27.85;9.57;;;20.60;57.60;;;;;;4947023;28;87784;-86
2022/01/06 11:29:53;;;;;;;26.50;8.13;;;20.60;58.10;;;;;;4920327;28;88089;-85
2022/01/06 11:32:22;;;;;;;24.70;8.98;;;20.60;57.10;;;;;;4944809;28;87236;-88
2022/01/06 11:34:51;;;;;;;;;;;20.60;56.40;;;;;;4939164;28;87525;-85
2022/01/06 11:37:17;;;;;;;24.02;7.97;;;20.60;56.50;;;;;;4943509;28;88024;-84
2022/01/06 11:39:43;;;;;;;26.80;8.32;;;20.60;57.00;;;;;;4943437;28;87107;-88
2022/01/06 11:42:25;;;;;;;21.52;8.40;;;20.60;57.00;;;;;;4938353;28;87659;-86
2022/01/06 11:45:00;;;;;;;26.65;8.15;;;20.60;57.10;;;;;;4943506;28;88013;-86
2022/01/06 11:47:34;;;;;;;22.30;7.63;;;20.60;57.00;;;;;;4934211;28;88803;-85
2022/01/06 11:50:12;;;;;;;21.85;8.10;;;20.60;56.50;;;;;;4946189;28;87827;-85
2022/01/06 11:52:50;;;;;;;20.90;7.50;;;20.60;56.70;;;;;;4935096;28;89764;-85
2022/01/06 11:55:16;;;;;;;22.25;8.30;;;20.60;56.90;;;;;;4945181;28;89000;-87
2022/01/06 11:57:41;;;;;;;21.33;7.55;;;20.60;57.10;;;;;;4934892;28;91462;-86
2022/01/06 12:00:20;;;;;;;22.27;7.00;;;20.60;57.50;;;;;;4945410;28;87810;-89
2022/01/06 12:03:05;;;;;;;20.10;7.63;;;20.60;57.70;;;;;;4948558;28;87518;-93
2022/01/06 12:05:48;;;;;;;24.00;8.13;;;20.60;58.30;;;;;;4950993;28;88053;-89
2022/01/06 12:08:15;;;;;;;24.17;8.20;;;20.60;57.30;;;;;;4932814;28;89914;-89
2022/01/06 12:10:47;;;;;;;24.55;7.88;;;20.60;57.90;;;;;;4947338;28;87590;-86
2022/01/06 12:13:13;;;;;;;21.50;7.57;;;20.60;58.20;;;;;;4948591;28;86187;-88
2022/01/06 12:15:50;;;;;;;17.80;7.38;;;20.60;58.40;;;;;;4950056;28;88114;-85
2022/01/06 12:18:26;;;;;;;24.02;7.70;;;20.60;58.50;;;;;;4953152;28;90463;-93
2022/01/06 12:20:54;;;;;;;22.00;7.63;;;20.70;59.00;;;;;;4952773;28;88583;-85
2022/01/06 12:23:22;;;;;;;20.80;6.97;;;20.70;58.10;;;;;;4954947;28;86787;-91
2022/01/06 12:25:58;;;;;;;19.73;6.75;;;20.70;58.20;;;;;;4941418;28;88201;-94
2022/01/06 12:28:25;;;;;;;19.90;7.18;;;20.70;58.50;;;;;;4955364;28;86936;-90
2022/01/06 12:30:57;;;;;;;19.05;6.88;;;20.80;58.60;;;;;;4954490;28;86886;-89
2022/01/06 12:33:22;;;;;;;22.88;7.32;;;20.70;58.80;;;;;;4936310;28;88550;-91
2022/01/06 12:35:55;;;;;;;14.90;6.88;;;20.70;58.80;;;;;;4953859;28;87549;-87
2022/01/06 12:38:31;;;;;;;26.23;7.03;;;20.70;58.60;;;;;;4948707;28;87279;-87
2022/01/06 12:40:58;;;;;;;17.35;7.10;;;20.70;58.60;;;;;;4949225;28;87373;-90
2022/01/06 12:43:32;;;;;;;17.20;7.32;;;20.80;59.00;;;;;;4951314;28;86926;-87
2022/01/06 12:46:09;;;;;;;20.50;6.97;;;20.80;58.80;;;;;;4929797;28;94239;-83
2022/01/06 12:48:47;;;;;;;16.50;6.70;;;20.70;58.80;;;;;;4948216;28;87365;-87
2022/01/06 12:51:37;;;;;;;14.73;6.47;;;20.70;58.10;;;;;;4940036;28;87665;-87
2022/01/06 12:54:13;;;;;;;27.33;8.00;;;20.70;58.10;;;;;;4957150;28;87420;-87
2022/01/06 12:56:43;;;;;;;17.73;6.22;;;20.80;59.20;;;;;;4954503;28;89380;-87
2022/01/06 12:59:12;;;;;;;21.67;6.93;;;20.80;59.30;;;;;;4959580;28;87792;-90
2022/01/06 13:01:38;;;;;;;20.07;6.00;;;20.80;59.30;;;;;;4960524;28;87722;-90